sensor_id;sensor_type;location;lat;lon;timestamp;P1;durP1;ratioP1;P2;durP2;ratioP2
51495;SDS011;37572;52.094;4.870;2022-10-30T00:00:15;18.77;;;8.97;;
51495;SDS011;37572;52.094;4.870;2022-10-30T00:02:41;17.00;;;9.35;;
51495;SDS011;37572;52.094;4.870;2022-10-30T00:05:06;18.40;;;9.27;;
51495;SDS011;37572;52.094;4.870;2022-10-30T00:07:32;12.05;;;6.97;;
51495;SDS011;37572;52.094;4.870;2022-10-30T00:09:57;17.30;;;10.23;;
51495;SDS011;37572;52.094;4.870;2022-10-30T00:12:22;17.13;;;9.40;;
51495;SDS011;37572;52.094;4.870;2022-10-30T00:14:47;16.80;;;9.83;;
51495;SDS011;37572;52.094;4.870;2022-10-30T00:17:12;18.17;;;9.27;;
51495;SDS011;37572;52.094;4.870;2022-10-30T00:19:38;20.40;;;9.10;;
51495;SDS011;37572;52.094;4.870;2022-10-30T00:22:03;18.00;;;9.90;;
51495;SDS011;37572;52.094;4.870;2022-10-30T00:24:28;21.40;;;10.43;;
51495;SDS011;37572;52.094;4.870;2022-10-30T00:26:53;13.75;;;8.57;;
51495;SDS011;37572;52.094;4.870;2022-10-30T00:29:18;19.53;;;9.57;;
51495;SDS011;37572;52.094;4.870;2022-10-30T00:31:44;17.47;;;9.40;;
51495;SDS011;37572;52.094;4.870;2022-10-30T00:34:09;19.97;;;10.60;;
51495;SDS011;37572;52.094;4.870;2022-10-30T00:36:34;18.73;;;9.23;;
51495;SDS011;37572;52.094;4.870;2022-10-30T00:38:59;17.43;;;10.53;;
51495;SDS011;37572;52.094;4.870;2022-10-30T00:41:24;14.27;;;8.37;;
51495;SDS011;37572;52.094;4.870;2022-10-30T00:43:50;18.13;;;9.57;;
51495;SDS011;37572;52.094;4.870;2022-10-30T00:46:23;20.33;;;10.48;;
51495;SDS011;37572;52.094;4.870;2022-10-30T00:51:24;20.42;;;10.80;;
51495;SDS011;37572;52.094;4.870;2022-10-30T00:53:49;16.33;;;9.82;;
51495;SDS011;37572;52.094;4.870;2022-10-30T00:56:16;18.67;;;9.35;;
51495;SDS011;37572;52.094;4.870;2022-10-30T00:58:43;17.05;;;10.13;;
51495;SDS011;37572;52.094;4.870;2022-10-30T01:01:11;21.83;;;11.15;;
51495;SDS011;37572;52.094;4.870;2022-10-30T01:03:40;18.50;;;10.95;;
51495;SDS011;37572;52.094;4.870;2022-10-30T01:06:06;19.90;;;10.50;;
51495;SDS011;37572;52.094;4.870;2022-10-30T01:08:32;17.52;;;9.93;;
51495;SDS011;37572;52.094;4.870;2022-10-30T01:10:58;21.83;;;11.17;;
51495;SDS011;37572;52.094;4.870;2022-10-30T01:13:24;19.73;;;10.60;;
51495;SDS011;37572;52.094;4.870;2022-10-30T01:15:53;17.67;;;10.27;;
51495;SDS011;37572;52.094;4.870;2022-10-30T01:18:29;17.30;;;10.40;;
51495;SDS011;37572;52.094;4.870;2022-10-30T01:21:07;21.45;;;10.60;;
51495;SDS011;37572;52.094;4.870;2022-10-30T01:23:37;16.85;;;9.50;;
51495;SDS011;37572;52.094;4.870;2022-10-30T01:28:49;20.73;;;10.32;;
51495;SDS011;37572;52.094;4.870;2022-10-30T01:31:22;19.73;;;10.00;;
51495;SDS011;37572;52.094;4.870;2022-10-30T01:33:55;18.30;;;11.13;;
51495;SDS011;37572;52.094;4.870;2022-10-30T01:36:32;18.88;;;10.70;;
51495;SDS011;37572;52.094;4.870;2022-10-30T01:39:14;17.08;;;10.43;;
51495;SDS011;37572;52.094;4.870;2022-10-30T01:41:40;21.92;;;10.95;;
51495;SDS011;37572;52.094;4.870;2022-10-30T01:44:06;16.23;;;9.98;;
51495;SDS011;37572;52.094;4.870;2022-10-30T01:49:17;18.95;;;9.52;;
51495;SDS011;37572;52.094;4.870;2022-10-30T01:56:46;19.65;;;10.02;;
51495;SDS011;37572;52.094;4.870;2022-10-30T01:59:25;17.63;;;9.85;;
51495;SDS011;37572;52.094;4.870;2022-10-30T02:01:53;18.88;;;10.38;;
51495;SDS011;37572;52.094;4.870;2022-10-30T02:04:19;18.40;;;9.77;;
51495;SDS011;37572;52.094;4.870;2022-10-30T02:06:44;22.67;;;11.13;;
51495;SDS011;37572;52.094;4.870;2022-10-30T02:09:09;19.73;;;11.03;;
51495;SDS011;37572;52.094;4.870;2022-10-30T02:11:34;19.20;;;10.60;;
51495;SDS011;37572;52.094;4.870;2022-10-30T02:14:02;20.27;;;10.10;;
51495;SDS011;37572;52.094;4.870;2022-10-30T02:16:28;19.60;;;10.43;;
51495;SDS011;37572;52.094;4.870;2022-10-30T02:18:53;19.13;;;10.60;;
51495;SDS011;37572;52.094;4.870;2022-10-30T02:21:18;17.07;;;9.23;;
51495;SDS011;37572;52.094;4.870;2022-10-30T02:23:44;17.77;;;9.60;;
51495;SDS011;37572;52.094;4.870;2022-10-30T02:26:09;24.13;;;11.60;;
51495;SDS011;37572;52.094;4.870;2022-10-30T02:28:34;20.20;;;10.73;;
51495;SDS011;37572;52.094;4.870;2022-10-30T02:30:59;23.37;;;11.07;;
51495;SDS011;37572;52.094;4.870;2022-10-30T02:33:24;17.03;;;10.40;;
51495;SDS011;37572;52.094;4.870;2022-10-30T02:35:50;17.23;;;9.53;;
51495;SDS011;37572;52.094;4.870;2022-10-30T02:38:15;15.73;;;9.80;;
51495;SDS011;37572;52.094;4.870;2022-10-30T02:40:40;18.00;;;9.95;;
51495;SDS011;37572;52.094;4.870;2022-10-30T02:43:06;16.87;;;10.03;;
51495;SDS011;37572;52.094;4.870;2022-10-30T02:45:31;20.67;;;11.23;;
51495;SDS011;37572;52.094;4.870;2022-10-30T02:47:57;20.57;;;10.70;;
51495;SDS011;37572;52.094;4.870;2022-10-30T02:50:22;17.85;;;10.88;;
51495;SDS011;37572;52.094;4.870;2022-10-30T02:52:47;18.83;;;10.87;;
51495;SDS011;37572;52.094;4.870;2022-10-30T02:55:13;19.53;;;11.00;;
51495;SDS011;37572;52.094;4.870;2022-10-30T02:57:38;20.07;;;11.43;;
51495;SDS011;37572;52.094;4.870;2022-10-30T03:00:03;20.33;;;10.87;;
51495;SDS011;37572;52.094;4.870;2022-10-30T03:02:28;21.90;;;11.18;;
51495;SDS011;37572;52.094;4.870;2022-10-30T03:04:54;20.97;;;11.17;;
51495;SDS011;37572;52.094;4.870;2022-10-30T03:07:19;19.23;;;10.93;;
51495;SDS011;37572;52.094;4.870;2022-10-30T03:09:44;17.40;;;11.07;;
51495;SDS011;37572;52.094;4.870;2022-10-30T03:12:09;19.97;;;11.27;;
51495;SDS011;37572;52.094;4.870;2022-10-30T03:14:34;19.00;;;10.77;;
51495;SDS011;37572;52.094;4.870;2022-10-30T03:16:59;18.17;;;9.60;;
51495;SDS011;37572;52.094;4.870;2022-10-30T03:19:25;18.23;;;10.60;;
51495;SDS011;37572;52.094;4.870;2022-10-30T03:21:50;18.17;;;9.83;;
51495;SDS011;37572;52.094;4.870;2022-10-30T03:24:16;20.55;;;10.15;;
51495;SDS011;37572;52.094;4.870;2022-10-30T03:26:42;21.60;;;10.83;;
51495;SDS011;37572;52.094;4.870;2022-10-30T03:29:07;22.90;;;10.53;;
51495;SDS011;37572;52.094;4.870;2022-10-30T03:31:32;19.63;;;10.70;;
51495;SDS011;37572;52.094;4.870;2022-10-30T03:33:57;22.00;;;11.07;;
51495;SDS011;37572;52.094;4.870;2022-10-30T03:36:23;18.60;;;10.30;;
51495;SDS011;37572;52.094;4.870;2022-10-30T03:38:48;17.10;;;9.30;;
51495;SDS011;37572;52.094;4.870;2022-10-30T03:41:14;20.07;;;12.03;;
51495;SDS011;37572;52.094;4.870;2022-10-30T03:43:39;20.60;;;11.50;;
51495;SDS011;37572;52.094;4.870;2022-10-30T03:46:04;21.83;;;11.33;;
51495;SDS011;37572;52.094;4.870;2022-10-30T03:48:29;20.60;;;11.53;;
51495;SDS011;37572;52.094;4.870;2022-10-30T03:50:55;21.83;;;11.27;;
51495;SDS011;37572;52.094;4.870;2022-10-30T03:53:21;26.00;;;12.23;;
51495;SDS011;37572;52.094;4.870;2022-10-30T03:55:47;25.50;;;13.35;;
51495;SDS011;37572;52.094;4.870;2022-10-30T03:58:13;23.73;;;11.63;;
51495;SDS011;37572;52.094;4.870;2022-10-30T04:00:38;20.40;;;11.83;;
51495;SDS011;37572;52.094;4.870;2022-10-30T04:03:06;24.10;;;10.93;;
51495;SDS011;37572;52.094;4.870;2022-10-30T04:05:32;23.42;;;11.65;;
51495;SDS011;37572;52.094;4.870;2022-10-30T04:07:57;21.37;;;11.87;;
51495;SDS011;37572;52.094;4.870;2022-10-30T04:10:23;18.95;;;11.10;;
51495;SDS011;37572;52.094;4.870;2022-10-30T04:12:49;23.70;;;12.30;;
51495;SDS011;37572;52.094;4.870;2022-10-30T04:15:14;26.27;;;12.80;;
51495;SDS011;37572;52.094;4.870;2022-10-30T04:17:39;16.70;;;10.67;;
51495;SDS011;37572;52.094;4.870;2022-10-30T04:20:05;19.93;;;10.90;;
51495;SDS011;37572;52.094;4.870;2022-10-30T04:22:30;20.50;;;11.23;;
51495;SDS011;37572;52.094;4.870;2022-10-30T04:24:55;22.17;;;12.15;;
51495;SDS011;37572;52.094;4.870;2022-10-30T04:27:21;21.70;;;11.73;;
51495;SDS011;37572;52.094;4.870;2022-10-30T04:29:46;23.17;;;12.00;;
51495;SDS011;37572;52.094;4.870;2022-10-30T04:32:11;22.30;;;12.00;;
51495;SDS011;37572;52.094;4.870;2022-10-30T04:34:36;22.23;;;12.02;;
51495;SDS011;37572;52.094;4.870;2022-10-30T04:37:03;20.15;;;10.93;;
51495;SDS011;37572;52.094;4.870;2022-10-30T04:39:29;26.95;;;12.73;;
51495;SDS011;37572;52.094;4.870;2022-10-30T04:41:54;22.90;;;13.10;;
51495;SDS011;37572;52.094;4.870;2022-10-30T04:44:19;19.23;;;10.83;;
51495;SDS011;37572;52.094;4.870;2022-10-30T04:46:44;21.33;;;12.40;;
51495;SDS011;37572;52.094;4.870;2022-10-30T04:49:09;21.63;;;11.53;;
51495;SDS011;37572;52.094;4.870;2022-10-30T04:51:34;19.93;;;11.60;;
51495;SDS011;37572;52.094;4.870;2022-10-30T04:54:00;20.07;;;11.00;;
51495;SDS011;37572;52.094;4.870;2022-10-30T04:56:25;25.07;;;11.97;;
51495;SDS011;37572;52.094;4.870;2022-10-30T04:58:50;18.40;;;11.83;;
51495;SDS011;37572;52.094;4.870;2022-10-30T05:01:16;23.40;;;12.05;;
51495;SDS011;37572;52.094;4.870;2022-10-30T05:03:42;19.43;;;10.17;;
51495;SDS011;37572;52.094;4.870;2022-10-30T05:06:18;25.87;;;13.80;;
51495;SDS011;37572;52.094;4.870;2022-10-30T05:11:10;23.08;;;11.85;;
51495;SDS011;37572;52.094;4.870;2022-10-30T05:13:35;18.90;;;11.23;;
51495;SDS011;37572;52.094;4.870;2022-10-30T05:16:00;26.07;;;13.83;;
51495;SDS011;37572;52.094;4.870;2022-10-30T05:18:25;23.33;;;12.97;;
51495;SDS011;37572;52.094;4.870;2022-10-30T05:20:50;25.10;;;12.33;;
51495;SDS011;37572;52.094;4.870;2022-10-30T05:23:16;23.07;;;11.50;;
51495;SDS011;37572;52.094;4.870;2022-10-30T05:25:41;22.10;;;10.83;;
51495;SDS011;37572;52.094;4.870;2022-10-30T05:28:06;23.27;;;12.93;;
51495;SDS011;37572;52.094;4.870;2022-10-30T05:30:32;27.30;;;13.02;;
51495;SDS011;37572;52.094;4.870;2022-10-30T05:33:01;23.00;;;12.95;;
51495;SDS011;37572;52.094;4.870;2022-10-30T05:35:26;24.05;;;13.13;;
51495;SDS011;37572;52.094;4.870;2022-10-30T05:37:52;22.25;;;12.80;;
51495;SDS011;37572;52.094;4.870;2022-10-30T05:40:17;21.07;;;11.87;;
51495;SDS011;37572;52.094;4.870;2022-10-30T05:42:45;25.37;;;12.00;;
51495;SDS011;37572;52.094;4.870;2022-10-30T05:45:11;22.45;;;11.60;;
51495;SDS011;37572;52.094;4.870;2022-10-30T05:47:36;23.17;;;12.40;;
51495;SDS011;37572;52.094;4.870;2022-10-30T05:50:01;24.50;;;12.77;;
51495;SDS011;37572;52.094;4.870;2022-10-30T05:52:27;24.52;;;12.55;;
51495;SDS011;37572;52.094;4.870;2022-10-30T05:54:53;24.25;;;11.80;;
51495;SDS011;37572;52.094;4.870;2022-10-30T05:57:18;22.33;;;12.10;;
51495;SDS011;37572;52.094;4.870;2022-10-30T05:59:43;23.00;;;12.13;;
51495;SDS011;37572;52.094;4.870;2022-10-30T06:02:08;21.17;;;13.23;;
51495;SDS011;37572;52.094;4.870;2022-10-30T06:04:33;22.07;;;12.67;;
51495;SDS011;37572;52.094;4.870;2022-10-30T06:06:59;21.57;;;11.77;;
51495;SDS011;37572;52.094;4.870;2022-10-30T06:09:24;22.23;;;12.30;;
51495;SDS011;37572;52.094;4.870;2022-10-30T06:11:49;21.13;;;12.80;;
51495;SDS011;37572;52.094;4.870;2022-10-30T06:14:14;23.17;;;11.73;;
51495;SDS011;37572;52.094;4.870;2022-10-30T06:16:39;25.80;;;12.20;;
51495;SDS011;37572;52.094;4.870;2022-10-30T06:19:04;21.57;;;12.53;;
51495;SDS011;37572;52.094;4.870;2022-10-30T06:21:30;26.07;;;13.00;;
51495;SDS011;37572;52.094;4.870;2022-10-30T06:23:55;26.13;;;12.57;;
51495;SDS011;37572;52.094;4.870;2022-10-30T06:26:20;24.33;;;12.83;;
51495;SDS011;37572;52.094;4.870;2022-10-30T06:28:45;20.47;;;13.17;;
51495;SDS011;37572;52.094;4.870;2022-10-30T06:31:10;20.00;;;12.80;;
51495;SDS011;37572;52.094;4.870;2022-10-30T06:33:35;23.03;;;11.30;;
51495;SDS011;37572;52.094;4.870;2022-10-30T06:36:01;21.00;;;12.80;;
51495;SDS011;37572;52.094;4.870;2022-10-30T06:38:26;26.17;;;13.27;;
51495;SDS011;37572;52.094;4.870;2022-10-30T06:40:51;25.83;;;13.77;;
51495;SDS011;37572;52.094;4.870;2022-10-30T06:43:16;25.77;;;13.77;;
51495;SDS011;37572;52.094;4.870;2022-10-30T06:45:41;22.53;;;14.23;;
51495;SDS011;37572;52.094;4.870;2022-10-30T06:48:07;22.60;;;12.43;;
51495;SDS011;37572;52.094;4.870;2022-10-30T06:50:32;22.23;;;13.90;;
51495;SDS011;37572;52.094;4.870;2022-10-30T06:52:57;18.10;;;11.53;;
51495;SDS011;37572;52.094;4.870;2022-10-30T06:55:23;24.13;;;14.13;;
51495;SDS011;37572;52.094;4.870;2022-10-30T06:57:54;25.13;;;14.50;;
51495;SDS011;37572;52.094;4.870;2022-10-30T07:00:20;23.88;;;14.18;;
51495;SDS011;37572;52.094;4.870;2022-10-30T07:02:53;23.37;;;13.10;;
51495;SDS011;37572;52.094;4.870;2022-10-30T07:05:18;24.58;;;13.60;;
51495;SDS011;37572;52.094;4.870;2022-10-30T07:07:44;26.70;;;14.23;;
51495;SDS011;37572;52.094;4.870;2022-10-30T07:10:09;25.00;;;13.80;;
51495;SDS011;37572;52.094;4.870;2022-10-30T07:12:34;23.60;;;13.77;;
51495;SDS011;37572;52.094;4.870;2022-10-30T07:14:59;26.33;;;14.03;;
51495;SDS011;37572;52.094;4.870;2022-10-30T07:17:24;26.47;;;13.07;;
51495;SDS011;37572;52.094;4.870;2022-10-30T07:19:49;27.57;;;14.77;;
51495;SDS011;37572;52.094;4.870;2022-10-30T07:22:14;26.07;;;14.33;;
51495;SDS011;37572;52.094;4.870;2022-10-30T07:24:40;24.83;;;13.57;;
51495;SDS011;37572;52.094;4.870;2022-10-30T07:27:05;24.43;;;14.30;;
51495;SDS011;37572;52.094;4.870;2022-10-30T07:29:30;21.97;;;12.97;;
51495;SDS011;37572;52.094;4.870;2022-10-30T07:31:55;26.07;;;13.83;;
51495;SDS011;37572;52.094;4.870;2022-10-30T07:34:20;22.83;;;13.80;;
51495;SDS011;37572;52.094;4.870;2022-10-30T07:36:46;24.00;;;13.70;;
51495;SDS011;37572;52.094;4.870;2022-10-30T07:39:11;21.27;;;12.20;;
51495;SDS011;37572;52.094;4.870;2022-10-30T07:41:36;27.40;;;13.83;;
51495;SDS011;37572;52.094;4.870;2022-10-30T07:44:01;23.17;;;16.10;;
51495;SDS011;37572;52.094;4.870;2022-10-30T07:46:26;28.50;;;14.37;;
51495;SDS011;37572;52.094;4.870;2022-10-30T07:48:51;21.83;;;12.80;;
51495;SDS011;37572;52.094;4.870;2022-10-30T07:51:17;23.63;;;12.30;;
51495;SDS011;37572;52.094;4.870;2022-10-30T07:53:42;25.43;;;13.63;;
51495;SDS011;37572;52.094;4.870;2022-10-30T07:56:07;23.13;;;12.17;;
51495;SDS011;37572;52.094;4.870;2022-10-30T07:58:32;20.53;;;12.03;;
51495;SDS011;37572;52.094;4.870;2022-10-30T08:00:57;22.53;;;12.83;;
51495;SDS011;37572;52.094;4.870;2022-10-30T08:03:23;19.40;;;11.93;;
51495;SDS011;37572;52.094;4.870;2022-10-30T08:05:48;28.27;;;13.33;;
51495;SDS011;37572;52.094;4.870;2022-10-30T08:08:13;24.70;;;12.73;;
51495;SDS011;37572;52.094;4.870;2022-10-30T08:10:38;20.40;;;10.40;;
51495;SDS011;37572;52.094;4.870;2022-10-30T08:13:03;16.57;;;10.23;;
51495;SDS011;37572;52.094;4.870;2022-10-30T08:15:28;21.00;;;11.47;;
51495;SDS011;37572;52.094;4.870;2022-10-30T08:17:54;20.10;;;11.70;;
51495;SDS011;37572;52.094;4.870;2022-10-30T08:20:20;18.70;;;12.03;;
51495;SDS011;37572;52.094;4.870;2022-10-30T08:22:48;23.10;;;13.18;;
51495;SDS011;37572;52.094;4.870;2022-10-30T08:25:14;21.00;;;12.05;;
51495;SDS011;37572;52.094;4.870;2022-10-30T08:27:48;19.52;;;12.65;;
51495;SDS011;37572;52.094;4.870;2022-10-30T08:30:13;20.33;;;11.68;;
51495;SDS011;37572;52.094;4.870;2022-10-30T08:32:38;24.30;;;12.90;;
51495;SDS011;37572;52.094;4.870;2022-10-30T08:35:03;20.13;;;11.80;;
51495;SDS011;37572;52.094;4.870;2022-10-30T08:37:29;19.98;;;12.27;;
51495;SDS011;37572;52.094;4.870;2022-10-30T08:39:55;18.25;;;11.68;;
51495;SDS011;37572;52.094;4.870;2022-10-30T08:42:20;20.07;;;11.83;;
51495;SDS011;37572;52.094;4.870;2022-10-30T08:44:46;20.67;;;10.77;;
51495;SDS011;37572;52.094;4.870;2022-10-30T08:47:11;22.43;;;11.30;;
51495;SDS011;37572;52.094;4.870;2022-10-30T08:49:36;20.53;;;11.00;;
51495;SDS011;37572;52.094;4.870;2022-10-30T08:52:01;19.13;;;9.83;;
51495;SDS011;37572;52.094;4.870;2022-10-30T08:54:26;18.17;;;11.60;;
51495;SDS011;37572;52.094;4.870;2022-10-30T08:56:51;17.50;;;11.23;;
51495;SDS011;37572;52.094;4.870;2022-10-30T08:59:17;17.40;;;9.20;;
51495;SDS011;37572;52.094;4.870;2022-10-30T09:01:42;15.90;;;9.60;;
51495;SDS011;37572;52.094;4.870;2022-10-30T09:04:07;19.40;;;11.23;;
51495;SDS011;37572;52.094;4.870;2022-10-30T09:06:32;15.20;;;9.23;;
51495;SDS011;37572;52.094;4.870;2022-10-30T09:08:57;16.37;;;9.47;;
51495;SDS011;37572;52.094;4.870;2022-10-30T09:11:23;15.90;;;9.83;;
51495;SDS011;37572;52.094;4.870;2022-10-30T09:13:48;14.23;;;7.63;;
51495;SDS011;37572;52.094;4.870;2022-10-30T09:16:13;17.07;;;9.37;;
51495;SDS011;37572;52.094;4.870;2022-10-30T09:18:38;15.50;;;10.03;;
51495;SDS011;37572;52.094;4.870;2022-10-30T09:21:03;17.43;;;9.50;;
51495;SDS011;37572;52.094;4.870;2022-10-30T09:23:29;20.77;;;11.00;;
51495;SDS011;37572;52.094;4.870;2022-10-30T09:25:56;17.33;;;9.20;;
51495;SDS011;37572;52.094;4.870;2022-10-30T09:28:21;10.65;;;7.30;;
51495;SDS011;37572;52.094;4.870;2022-10-30T09:30:46;13.87;;;8.60;;
51495;SDS011;37572;52.094;4.870;2022-10-30T09:33:16;18.25;;;9.90;;
51495;SDS011;37572;52.094;4.870;2022-10-30T09:35:41;16.33;;;10.53;;
51495;SDS011;37572;52.094;4.870;2022-10-30T09:38:07;15.60;;;9.23;;
51495;SDS011;37572;52.094;4.870;2022-10-30T09:43:07;21.40;;;9.82;;
51495;SDS011;37572;52.094;4.870;2022-10-30T09:45:44;19.73;;;9.77;;
51495;SDS011;37572;52.094;4.870;2022-10-30T09:50:45;18.33;;;10.60;;
51495;SDS011;37572;52.094;4.870;2022-10-30T09:53:21;20.05;;;10.50;;
51495;SDS011;37572;52.094;4.870;2022-10-30T09:55:50;16.85;;;10.30;;
51495;SDS011;37572;52.094;4.870;2022-10-30T10:00:47;15.68;;;9.48;;
51495;SDS011;37572;52.094;4.870;2022-10-30T10:03:26;15.95;;;8.85;;
51495;SDS011;37572;52.094;4.870;2022-10-30T10:05:55;19.55;;;10.82;;
51495;SDS011;37572;52.094;4.870;2022-10-30T10:08:27;16.80;;;10.20;;
51495;SDS011;37572;52.094;4.870;2022-10-30T10:10:58;17.85;;;8.85;;
51495;SDS011;37572;52.094;4.870;2022-10-30T10:16:24;14.73;;;9.07;;
51495;SDS011;37572;52.094;4.870;2022-10-30T10:21:26;14.83;;;7.30;;
51495;SDS011;37572;52.094;4.870;2022-10-30T10:23:53;12.32;;;8.70;;
51495;SDS011;37572;52.094;4.870;2022-10-30T10:32:04;17.23;;;9.00;;
51495;SDS011;37572;52.094;4.870;2022-10-30T10:39:44;16.77;;;10.00;;
51495;SDS011;37572;52.094;4.870;2022-10-30T10:47:27;16.13;;;9.27;;
51495;SDS011;37572;52.094;4.870;2022-10-30T10:50:05;15.15;;;8.25;;
51495;SDS011;37572;52.094;4.870;2022-10-30T10:52:54;16.10;;;8.45;;
51495;SDS011;37572;52.094;4.870;2022-10-30T10:55:38;14.80;;;8.18;;
51495;SDS011;37572;52.094;4.870;2022-10-30T10:58:12;13.02;;;8.68;;
51495;SDS011;37572;52.094;4.870;2022-10-30T11:00:38;14.07;;;7.43;;
51495;SDS011;37572;52.094;4.870;2022-10-30T11:03:08;17.10;;;9.25;;
51495;SDS011;37572;52.094;4.870;2022-10-30T11:05:38;17.20;;;9.00;;
51495;SDS011;37572;52.094;4.870;2022-10-30T11:08:09;14.27;;;7.50;;
51495;SDS011;37572;52.094;4.870;2022-10-30T11:10:35;13.27;;;7.45;;
51495;SDS011;37572;52.094;4.870;2022-10-30T11:13:00;14.83;;;8.20;;
51495;SDS011;37572;52.094;4.870;2022-10-30T11:17:58;16.08;;;8.13;;
51495;SDS011;37572;52.094;4.870;2022-10-30T11:20:27;16.70;;;7.50;;
51495;SDS011;37572;52.094;4.870;2022-10-30T11:22:53;11.98;;;7.00;;
51495;SDS011;37572;52.094;4.870;2022-10-30T11:25:19;13.33;;;7.60;;
51495;SDS011;37572;52.094;4.870;2022-10-30T11:27:46;18.60;;;8.13;;
51495;SDS011;37572;52.094;4.870;2022-10-30T11:30:15;13.73;;;8.00;;
51495;SDS011;37572;52.094;4.870;2022-10-30T11:32:40;15.93;;;8.05;;
51495;SDS011;37572;52.094;4.870;2022-10-30T11:37:32;16.73;;;8.50;;
51495;SDS011;37572;52.094;4.870;2022-10-30T11:40:05;13.30;;;8.05;;
51495;SDS011;37572;52.094;4.870;2022-10-30T11:42:30;15.75;;;8.10;;
51495;SDS011;37572;52.094;4.870;2022-10-30T11:44:56;15.02;;;8.95;;
51495;SDS011;37572;52.094;4.870;2022-10-30T11:47:25;16.23;;;8.70;;
51495;SDS011;37572;52.094;4.870;2022-10-30T11:49:53;16.02;;;8.10;;
51495;SDS011;37572;52.094;4.870;2022-10-30T11:52:22;18.48;;;8.90;;
51495;SDS011;37572;52.094;4.870;2022-10-30T11:54:59;18.85;;;9.57;;
51495;SDS011;37572;52.094;4.870;2022-10-30T11:57:32;16.85;;;8.48;;
51495;SDS011;37572;52.094;4.870;2022-10-30T11:59:58;16.35;;;8.07;;
51495;SDS011;37572;52.094;4.870;2022-10-30T12:02:25;21.33;;;10.10;;
51495;SDS011;37572;52.094;4.870;2022-10-30T12:04:52;18.70;;;9.27;;
51495;SDS011;37572;52.094;4.870;2022-10-30T12:09:50;15.48;;;8.20;;
51495;SDS011;37572;52.094;4.870;2022-10-30T12:12:22;15.57;;;9.70;;
51495;SDS011;37572;52.094;4.870;2022-10-30T12:14:48;19.48;;;10.60;;
51495;SDS011;37572;52.094;4.870;2022-10-30T12:17:14;16.50;;;9.82;;
51495;SDS011;37572;52.094;4.870;2022-10-30T12:19:44;15.25;;;9.90;;
51495;SDS011;37572;52.094;4.870;2022-10-30T12:22:09;19.10;;;10.13;;
51495;SDS011;37572;52.094;4.870;2022-10-30T12:24:35;16.43;;;8.97;;
51495;SDS011;37572;52.094;4.870;2022-10-30T12:27:02;16.15;;;8.55;;
51495;SDS011;37572;52.094;4.870;2022-10-30T12:29:37;17.27;;;10.07;;
51495;SDS011;37572;52.094;4.870;2022-10-30T12:32:05;17.42;;;9.77;;
51495;SDS011;37572;52.094;4.870;2022-10-30T12:37:04;18.90;;;10.60;;
51495;SDS011;37572;52.094;4.870;2022-10-30T12:42:19;18.27;;;9.77;;
51495;SDS011;37572;52.094;4.870;2022-10-30T12:45:07;19.10;;;12.15;;
51495;SDS011;37572;52.094;4.870;2022-10-30T12:50:02;18.25;;;9.75;;
51495;SDS011;37572;52.094;4.870;2022-10-30T12:55:02;21.05;;;10.63;;
51495;SDS011;37572;52.094;4.870;2022-10-30T12:57:35;19.00;;;10.45;;
51495;SDS011;37572;52.094;4.870;2022-10-30T13:02:32;20.40;;;10.32;;
51495;SDS011;37572;52.094;4.870;2022-10-30T13:05:03;20.05;;;10.88;;
51495;SDS011;37572;52.094;4.870;2022-10-30T13:07:40;20.98;;;10.73;;
51495;SDS011;37572;52.094;4.870;2022-10-30T13:12:39;13.68;;;7.88;;
51495;SDS011;37572;52.094;4.870;2022-10-30T13:15:20;20.17;;;10.15;;
51495;SDS011;37572;52.094;4.870;2022-10-30T13:17:46;18.60;;;9.77;;
51495;SDS011;37572;52.094;4.870;2022-10-30T13:20:11;16.27;;;9.73;;
51495;SDS011;37572;52.094;4.870;2022-10-30T13:22:50;18.77;;;10.63;;
51495;SDS011;37572;52.094;4.870;2022-10-30T13:25:29;15.55;;;9.05;;
51495;SDS011;37572;52.094;4.870;2022-10-30T13:27:59;19.20;;;11.07;;
51495;SDS011;37572;52.094;4.870;2022-10-30T13:40:43;16.50;;;8.90;;
51495;SDS011;37572;52.094;4.870;2022-10-30T13:43:26;19.77;;;9.93;;
51495;SDS011;37572;52.094;4.870;2022-10-30T13:48:52;17.60;;;9.70;;
51495;SDS011;37572;52.094;4.870;2022-10-30T13:54:20;21.17;;;12.85;;
51495;SDS011;37572;52.094;4.870;2022-10-30T13:56:46;18.98;;;10.65;;
51495;SDS011;37572;52.094;4.870;2022-10-30T13:59:27;16.98;;;9.95;;
51495;SDS011;37572;52.094;4.870;2022-10-30T14:02:00;19.02;;;9.45;;
51495;SDS011;37572;52.094;4.870;2022-10-30T14:04:33;16.35;;;10.55;;
51495;SDS011;37572;52.094;4.870;2022-10-30T14:07:19;16.65;;;10.02;;
51495;SDS011;37572;52.094;4.870;2022-10-30T14:14:59;18.05;;;8.82;;
51495;SDS011;37572;52.094;4.870;2022-10-30T14:17:27;16.98;;;9.15;;
51495;SDS011;37572;52.094;4.870;2022-10-30T14:22:30;18.70;;;9.48;;
51495;SDS011;37572;52.094;4.870;2022-10-30T14:24:55;18.50;;;9.75;;
51495;SDS011;37572;52.094;4.870;2022-10-30T14:27:25;16.73;;;8.68;;
51495;SDS011;37572;52.094;4.870;2022-10-30T14:29:51;15.00;;;8.65;;
51495;SDS011;37572;52.094;4.870;2022-10-30T14:37:10;17.15;;;10.07;;
51495;SDS011;37572;52.094;4.870;2022-10-30T14:44:45;17.92;;;10.48;;
51495;SDS011;37572;52.094;4.870;2022-10-30T14:47:20;19.35;;;10.93;;
51495;SDS011;37572;52.094;4.870;2022-10-30T14:55:14;16.48;;;9.27;;
51495;SDS011;37572;52.094;4.870;2022-10-30T15:05:30;11.77;;;5.63;;
51495;SDS011;37572;52.094;4.870;2022-10-30T15:08:14;9.23;;;5.30;;
51495;SDS011;37572;52.094;4.870;2022-10-30T15:10:49;9.52;;;4.60;;
51495;SDS011;37572;52.094;4.870;2022-10-30T15:13:18;15.13;;;5.38;;
51495;SDS011;37572;52.094;4.870;2022-10-30T15:15:44;11.90;;;6.10;;
51495;SDS011;37572;52.094;4.870;2022-10-30T15:18:20;10.00;;;6.60;;
51495;SDS011;37572;52.094;4.870;2022-10-30T15:20:52;13.80;;;6.07;;
51495;SDS011;37572;52.094;4.870;2022-10-30T15:23:19;12.85;;;7.53;;
51495;SDS011;37572;52.094;4.870;2022-10-30T15:25:48;12.00;;;6.07;;
51495;SDS011;37572;52.094;4.870;2022-10-30T15:28:15;12.15;;;4.82;;
51495;SDS011;37572;52.094;4.870;2022-10-30T15:30:56;9.70;;;5.28;;
51495;SDS011;37572;52.094;4.870;2022-10-30T15:33:21;8.70;;;4.22;;
51495;SDS011;37572;52.094;4.870;2022-10-30T15:35:46;9.53;;;4.20;;
51495;SDS011;37572;52.094;4.870;2022-10-30T15:38:11;8.60;;;3.83;;
51495;SDS011;37572;52.094;4.870;2022-10-30T15:40:37;10.23;;;4.97;;
51495;SDS011;37572;52.094;4.870;2022-10-30T15:43:03;9.18;;;4.40;;
51495;SDS011;37572;52.094;4.870;2022-10-30T15:45:36;10.68;;;4.15;;
51495;SDS011;37572;52.094;4.870;2022-10-30T15:50:30;11.82;;;4.20;;
51495;SDS011;37572;52.094;4.870;2022-10-30T15:52:56;10.48;;;5.38;;
51495;SDS011;37572;52.094;4.870;2022-10-30T15:55:28;10.02;;;4.03;;
51495;SDS011;37572;52.094;4.870;2022-10-30T15:57:55;8.75;;;3.90;;
51495;SDS011;37572;52.094;4.870;2022-10-30T16:00:22;11.65;;;4.97;;
51495;SDS011;37572;52.094;4.870;2022-10-30T16:05:25;9.68;;;4.22;;
51495;SDS011;37572;52.094;4.870;2022-10-30T16:07:53;6.45;;;3.53;;
51495;SDS011;37572;52.094;4.870;2022-10-30T16:10:19;10.07;;;3.97;;
51495;SDS011;37572;52.094;4.870;2022-10-30T16:12:44;7.23;;;4.50;;
51495;SDS011;37572;52.094;4.870;2022-10-30T16:15:23;7.50;;;3.70;;
51495;SDS011;37572;52.094;4.870;2022-10-30T16:17:56;13.40;;;4.07;;
51495;SDS011;37572;52.094;4.870;2022-10-30T16:20:22;7.47;;;3.10;;
51495;SDS011;37572;52.094;4.870;2022-10-30T16:22:48;7.28;;;3.30;;
51495;SDS011;37572;52.094;4.870;2022-10-30T16:25:13;8.47;;;3.13;;
51495;SDS011;37572;52.094;4.870;2022-10-30T16:27:43;7.68;;;3.53;;